Time;durP1;ratioP1;P1;durP2;ratioP2;P2;SDS_P1;SDS_P2;PMS_P1;PMS_P2;Temp;Humidity;BMP_temperature;BMP_pressure;BME280_temperature;BME280_humidity;BME280_pressure;Samples;Min_cycle;Max_cycle;Signal;HPM_P1;HPM_P2
2023/07/17 00:00:31;;;;;;;0.40;0.40;;;;;;;14.23;93.80;99176.19;5072754;28;20055;-81
2023/07/17 00:03:11;;;;;;;0.40;0.40;;;;;;;14.12;94.06;99184.53;5081092;28;20048;-79
2023/07/17 00:05:39;;;;;;;0.40;0.40;;;;;;;14.10;94.66;99192.91;5017621;28;20101;-81
2023/07/17 00:08:06;;;;;;;0.40;0.40;;;;;;;14.14;94.79;99180.47;5066928;28;20052;-80
2023/07/17 00:10:36;;;;;;;0.40;0.40;;;;;;;14.12;94.68;99185.34;5073053;28;20066;-80
2023/07/17 00:13:04;;;;;;;0.40;0.40;;;;;;;14.11;95.10;99182.91;5039874;28;20534;-81
2023/07/17 00:15:31;;;;;;;0.40;0.40;;;;;;;14.10;95.18;99179.34;5072533;28;20047;-80
2023/07/17 00:18:02;;;;;;;0.30;0.30;;;;;;;14.02;95.00;99183.38;5090826;28;20044;-81
2023/07/17 00:20:30;;;;;;;0.40;0.40;;;;;;;13.98;95.41;99181.47;5090605;28;20055;-80
2023/07/17 00:22:57;;;;;;;0.40;0.40;;;;;;;13.99;95.53;99180.38;5055990;28;20143;-80
2023/07/17 00:25:25;;;;;;;0.40;0.40;;;;;;;13.88;95.47;99177.63;5073018;28;20052;-80
2023/07/17 00:27:52;;;;;;;0.40;0.40;;;;;;;13.94;95.98;99183.06;5072525;28;20052;-79
2023/07/17 00:30:20;;;;;;;0.40;0.40;;;;;;;13.99;96.11;99183.91;5090683;28;20485;-79
2023/07/17 00:32:48;;;;;;;0.40;0.40;;;;;;;13.97;95.94;99182.53;5068723;28;20054;-80
2023/07/17 00:35:16;;;;;;;0.40;0.40;;;;;;;13.95;96.40;99173.84;5052151;28;20049;-81
2023/07/17 00:37:43;;;;;;;0.40;0.40;;;;;;;14.01;96.19;99175.53;5052079;28;20503;-80
2023/07/17 00:40:12;;;;;;;0.40;0.40;;;;;;;14.10;95.98;99173.91;5052738;28;20055;-78
2023/07/17 00:42:40;;;;;;;0.35;0.35;;;;;;;14.15;95.94;99176.66;5051910;28;20044;-80
2023/07/17 00:45:08;;;;;;;0.40;0.40;;;;;;;14.19;95.74;99177.78;5070216;28;20542;-80
2023/07/17 00:47:36;;;;;;;0.40;0.40;;;;;;;14.23;95.76;99178.06;5051843;28;20048;-80
2023/07/17 00:50:05;;;;;;;0.40;0.40;;;;;;;14.27;95.93;99181.88;5035431;28;20049;-80
2023/07/17 00:52:33;;;;;;;0.40;0.40;;;;;;;14.26;95.48;99181.06;5054187;28;20105;-81
2023/07/17 00:55:01;;;;;;;0.40;0.40;;;;;;;14.34;95.06;99184.38;5039198;28;20044;-80
2023/07/17 00:57:29;;;;;;;0.38;0.38;;;;;;;14.38;94.66;99183.59;5072448;28;20039;-81
2023/07/17 00:59:57;;;;;;;0.40;0.40;;;;;;;14.36;95.04;99180.31;5055676;28;20044;-81
2023/07/17 01:02:24;;;;;;;0.40;0.40;;;;;;;14.30;95.72;99184.91;5072119;28;20058;-80
2023/07/17 01:04:51;;;;;;;0.40;0.40;;;;;;;14.19;95.83;99177.78;5072332;28;20055;-82
2023/07/17 01:07:18;;;;;;;0.40;0.40;;;;;;;14.25;96.38;99179.41;5090064;28;20040;-82
2023/07/17 01:09:45;;;;;;;0.40;0.40;;;;;;;14.23;96.21;99173.47;5089917;28;20135;-81
2023/07/17 01:12:15;;;;;;;0.40;0.40;;;;;;;14.18;96.26;99175.31;5072701;28;20484;-81
2023/07/17 01:14:42;;;;;;;0.38;0.38;;;;;;;14.06;96.07;99164.69;5055133;28;20059;-80
2023/07/17 01:17:09;;;;;;;0.40;0.40;;;;;;;14.21;95.92;99191.09;5071665;28;20044;-81
2023/07/17 01:19:37;;;;;;;0.40;0.40;;;;;;;14.19;95.96;99191.34;5071428;28;20040;-81
2023/07/17 01:22:11;;;;;;;0.40;0.40;;;;;;;14.21;96.14;99191.91;5071976;28;20056;-82
2023/07/17 01:24:38;;;;;;;0.40;0.40;;;;;;;14.22;96.16;99190.81;5089876;28;20059;-82
2023/07/17 01:27:06;;;;;;;0.40;0.40;;;;;;;14.30;95.67;99187.63;5090192;28;20533;-81
2023/07/17 01:29:36;;;;;;;0.40;0.40;;;;;;;14.25;95.76;99194.91;5071451;28;20056;-82
2023/07/17 01:32:04;;;;;;;0.40;0.40;;;;;;;14.19;95.87;99198.69;5089763;28;20093;-81
2023/07/17 01:34:31;;;;;;;0.40;0.40;;;;;;;14.19;95.81;99194.06;5088248;28;20092;-82
2023/07/17 01:36:58;;;;;;;0.40;0.40;;;;;;;14.15;95.46;99194.84;5089826;28;20071;-81
2023/07/17 01:39:25;;;;;;;0.40;0.40;;;;;;;14.00;95.68;99198.28;5089677;28;20105;-81
2023/07/17 01:41:52;;;;;;;0.40;0.40;;;;;;;13.98;96.09;99189.63;5071370;28;20079;-81
2023/07/17 01:44:19;;;;;;;0.40;0.40;;;;;;;13.97;96.51;99198.81;5071677;28;20044;-81
2023/07/17 01:46:46;;;;;;;0.40;0.40;;;;;;;13.96;96.67;99202.63;5084303;28;20083;-82
2023/07/17 01:49:14;;;;;;;0.40;0.40;;;;;;;13.91;96.89;99208.00;5051688;28;20049;-80
2023/07/17 01:51:40;;;;;;;0.40;0.40;;;;;;;13.87;96.89;99205.00;5035070;28;20040;-81
2023/07/17 01:54:07;;;;;;;0.40;0.40;;;;;;;13.76;96.72;99198.69;5051535;28;20593;-80
2023/07/17 01:56:35;;;;;;;0.30;0.30;;;;;;;13.70;96.44;99205.16;5069519;28;20260;-81
2023/07/17 01:59:02;;;;;;;0.40;0.40;;;;;;;13.56;97.22;99203.97;5058258;28;20086;-81
2023/07/17 02:01:29;;;;;;;0.40;0.40;;;;;;;13.49;98.00;99193.31;5071372;28;20056;-82
2023/07/17 02:03:56;;;;;;;0.40;0.40;;;;;;;13.44;98.87;99186.00;5088038;28;20076;-82
2023/07/17 02:06:26;;;;;;;0.40;0.40;;;;;;;13.55;99.12;99194.19;5088251;28;20096;-81
2023/07/17 02:08:53;;;;;;;0.40;0.40;;;;;;;13.60;99.29;99196.94;5088837;28;20089;-82
2023/07/17 02:11:27;;;;;;;0.47;0.47;;;;;;;13.63;99.33;99193.72;5089277;28;20155;-82
2023/07/17 02:13:56;;;;;;;0.40;0.40;;;;;;;13.65;99.39;99197.81;5071125;28;20510;-80
2023/07/17 02:16:23;;;;;;;0.40;0.40;;;;;;;13.76;99.00;99206.00;5071228;28;20063;-81
2023/07/17 02:18:52;;;;;;;0.40;0.40;;;;;;;13.72;98.84;99199.47;5088936;28;20093;-82
2023/07/17 02:21:19;;;;;;;0.50;0.50;;;;;;;13.79;98.54;99205.47;5054567;28;20047;-82
2023/07/17 02:23:46;;;;;;;0.47;0.47;;;;;;;13.91;98.25;99202.59;5088956;28;20044;-81
2023/07/17 02:26:14;;;;;;;0.40;0.40;;;;;;;14.02;97.60;99217.84;5072941;28;20043;-83
2023/07/17 02:28:41;;;;;;;0.40;0.40;;;;;;;14.06;97.07;99219.78;5092356;28;20056;-82
2023/07/17 02:31:08;;;;;;;0.40;0.40;;;;;;;14.06;96.98;99217.06;5074639;28;20044;-82
2023/07/17 02:33:36;;;;;;;0.40;0.40;;;;;;;14.15;97.02;99205.69;5072213;28;20078;-82
2023/07/17 02:36:04;;;;;;;0.40;0.40;;;;;;;14.15;96.64;99203.81;5080986;28;20498;-79
2023/07/17 02:38:31;;;;;;;0.40;0.40;;;;;;;14.26;96.67;99207.41;5080205;28;20422;-84
2023/07/17 02:40:58;;;;;;;0.40;0.40;;;;;;;14.36;96.93;99218.31;5072775;28;20050;-81
2023/07/17 02:43:27;;;;;;;0.40;0.40;;;;;;;14.26;96.47;99193.84;5068741;28;20040;-82
2023/07/17 02:45:54;;;;;;;0.50;0.50;;;;;;;14.45;96.39;99224.03;5050095;28;20127;-81
2023/07/17 02:48:21;;;;;;;0.40;0.40;;;;;;;14.50;96.26;99227.59;5072330;28;20127;-82
2023/07/17 02:50:51;;;;;;;0.40;0.40;;;;;;;14.55;95.75;99226.03;5083501;28;20098;-82
2023/07/17 02:53:18;;;;;;;0.40;0.40;;;;;;;14.60;95.32;99229.56;5082974;28;20058;-81
2023/07/17 02:55:45;;;;;;;0.40;0.40;;;;;;;14.64;95.29;99229.88;5080928;28;20053;-81
2023/07/17 02:58:17;;;;;;;0.40;0.40;;;;;;;14.66;95.39;99233.97;5049475;28;20591;-80
2023/07/17 03:00:44;;;;;;;0.40;0.40;;;;;;;14.63;95.09;99234.47;5066411;28;20077;-83
2023/07/17 03:03:11;;;;;;;0.40;0.40;;;;;;;14.63;95.08;99228.22;5073353;28;20044;-81
2023/07/17 03:05:38;;;;;;;0.40;0.40;;;;;;;14.65;94.91;99231.50;5091311;28;20106;-82
2023/07/17 03:08:05;;;;;;;0.40;0.40;;;;;;;14.78;94.83;99233.72;5075018;28;20052;-81
2023/07/17 03:10:32;;;;;;;0.45;0.45;;;;;;;14.90;94.48;99228.06;5074625;28;20043;-81
2023/07/17 03:12:59;;;;;;;0.40;0.40;;;;;;;14.99;94.24;99225.63;5092702;28;20052;-80
2023/07/17 03:15:27;;;;;;;0.40;0.40;;;;;;;15.15;94.07;99225.41;5057867;28;20704;-81
2023/07/17 03:17:54;;;;;;;0.35;0.35;;;;;;;15.19;93.53;99212.06;5074415;28;20101;-82
2023/07/17 03:20:21;;;;;;;0.40;0.40;;;;;;;15.14;92.99;99207.47;5074583;28;20044;-81
2023/07/17 03:22:49;;;;;;;0.40;0.40;;;;;;;15.27;92.57;99233.31;5092101;28;20055;-81
2023/07/17 03:25:16;;;;;;;0.40;0.40;;;;;;;15.21;92.75;99233.56;5073932;28;20147;-81
2023/07/17 03:27:43;;;;;;;0.40;0.40;;;;;;;15.11;92.63;99235.16;5071838;28;20036;-81
2023/07/17 03:30:10;;;;;;;0.40;0.40;;;;;;;15.07;92.54;99227.84;5070820;28;20143;-81
2023/07/17 03:32:38;;;;;;;0.40;0.40;;;;;;;15.26;92.69;99239.81;5079286;28;20072;-81
2023/07/17 03:35:06;;;;;;;0.40;0.40;;;;;;;15.33;92.05;99239.56;5054254;28;20049;-82
2023/07/17 03:37:39;;;;;;;0.40;0.40;;;;;;;15.50;91.54;99240.13;5060601;28;20144;-81
2023/07/17 03:40:07;;;;;;;0.40;0.40;;;;;;;15.54;90.80;99216.72;5056592;28;20055;-80
2023/07/17 03:42:34;;;;;;;0.40;0.40;;;;;;;15.84;89.90;99247.78;5080622;28;20151;-79
2023/07/17 03:45:04;;;;;;;0.40;0.40;;;;;;;16.00;89.16;99246.69;5064780;28;20113;-80
2023/07/17 03:47:33;;;;;;;0.40;0.40;;;;;;;16.14;88.23;99243.38;5062552;28;20132;-79
2023/07/17 03:50:02;;;;;;;0.40;0.40;;;;;;;16.31;87.77;99235.72;5087264;28;20051;-81
2023/07/17 03:52:30;;;;;;;0.40;0.40;;;;;;;16.49;87.42;99241.69;5024879;28;20093;-79
2023/07/17 03:54:58;;;;;;;0.40;0.40;;;;;;;16.60;87.33;99230.44;5073597;28;20067;-80
2023/07/17 03:57:25;;;;;;;0.40;0.40;;;;;;;16.71;86.77;99222.22;5073784;28;20082;-81
2023/07/17 03:59:54;;;;;;;0.40;0.40;;;;;;;16.94;85.88;99226.22;5056638;28;20064;-80
2023/07/17 04:02:25;;;;;;;0.40;0.40;;;;;;;17.10;85.16;99214.16;5073571;28;20062;-80
2023/07/17 04:04:52;;;;;;;0.40;0.40;;;;;;;17.17;84.70;99211.94;5072492;28;20526;-80
2023/07/17 04:07:22;;;;;;;0.40;0.40;;;;;;;17.31;83.94;99215.63;5065306;28;20422;-80
2023/07/17 04:09:51;;;;;;;0.40;0.40;;;;;;;17.49;83.27;99224.22;5058650;28;20056;-79
2023/07/17 04:12:18;;;;;;;0.30;0.30;;;;;;;17.65;81.73;99233.13;5083030;28;20418;-79
2023/07/17 04:14:45;;;;;;;0.38;0.38;;;;;;;17.76;78.75;99219.09;5048904;28;20084;-81
2023/07/17 04:17:12;;;;;;;0.30;0.30;;;;;;;17.84;76.37;99214.97;5070367;28;20063;-81
2023/07/17 04:19:39;;;;;;;0.40;0.40;;;;;;;17.86;76.72;99218.22;5081160;28;20051;-80
2023/07/17 04:22:06;;;;;;;0.35;0.35;;;;;;;17.87;77.44;99222.56;5069106;28;20147;-79
2023/07/17 04:24:34;;;;;;;0.40;0.40;;;;;;;17.95;77.34;99213.78;5053489;28;20051;-79
2023/07/17 04:27:01;;;;;;;0.40;0.40;;;;;;;18.17;76.08;99232.38;5055662;28;20044;-80
2023/07/17 04:29:29;;;;;;;0.40;0.40;;;;;;;18.35;74.62;99232.75;5041142;28;20088;-80
2023/07/17 04:32:00;;;;;;;0.35;0.35;;;;;;;18.53;73.23;99229.25;5040170;28;20132;-79
2023/07/17 04:34:28;;;;;;;0.40;0.40;;;;;;;18.67;72.50;99228.56;5044926;28;20383;-80
2023/07/17 04:36:57;;;;;;;0.35;0.35;;;;;;;18.80;71.60;99233.34;5043066;28;20148;-79
2023/07/17 04:39:26;;;;;;;0.35;0.35;;;;;;;18.92;69.71;99231.00;5025012;28;20128;-79
2023/07/17 04:42:02;;;;;;;0.40;0.40;;;;;;;19.04;69.20;99236.84;5042729;28;20052;-79
2023/07/17 04:44:29;;;;;;;0.40;0.40;;;;;;;19.16;69.33;99239.13;5041387;28;20545;-77
2023/07/17 04:46:58;;;;;;;0.30;0.30;;;;;;;19.28;68.25;99244.16;5049459;28;20098;-80
2023/07/17 04:49:26;;;;;;;0.30;0.30;;;;;;;19.35;68.47;99247.34;5046705;28;20254;-80
2023/07/17 04:51:54;;;;;;;0.30;0.30;;;;;;;19.33;69.13;99246.03;5047985;28;20556;-79
2023/07/17 04:54:21;;;;;;;0.40;0.40;;;;;;;19.16;69.66;99252.81;5048937;28;20758;-80
2023/07/17 04:56:48;;;;;;;0.30;0.30;;;;;;;19.11;69.96;99243.88;5033737;28;20046;-80
2023/07/17 04:59:19;;;;;;;0.30;0.30;;;;;;;19.14;70.13;99249.56;5047923;28;20048;-79
2023/07/17 05:01:47;;;;;;;0.40;0.40;;;;;;;19.14;69.79;99256.94;5030397;28;20143;-79
2023/07/17 05:04:14;;;;;;;0.38;0.38;;;;;;;19.13;69.76;99247.13;5050136;28;20562;-80
2023/07/17 05:06:41;;;;;;;0.32;0.32;;;;;;;19.20;69.20;99251.13;5048648;28;20045;-79
2023/07/17 05:09:08;;;;;;;0.40;0.40;;;;;;;19.24;68.20;99243.13;5049869;28;20061;-79
2023/07/17 05:11:37;;;;;;;0.40;0.40;;;;;;;19.20;67.41;99231.97;5048488;28;20123;-80
2023/07/17 05:14:04;;;;;;;0.30;0.30;;;;;;;19.21;67.22;99224.56;5049347;28;20487;-79
2023/07/17 05:16:31;;;;;;;0.30;0.30;;;;;;;19.37;66.70;99239.66;5041089;28;20042;-80
2023/07/17 05:18:58;;;;;;;0.30;0.30;;;;;;;19.48;66.34;99241.13;5040993;28;20072;-80
2023/07/17 05:21:29;;;;;;;0.30;0.30;;;;;;;19.61;65.87;99234.06;5048667;28;20198;-80
2023/07/17 05:23:57;;;;;;;0.32;0.32;;;;;;;19.73;65.61;99241.88;5047746;28;20407;-80
2023/07/17 05:26:25;;;;;;;0.40;0.40;;;;;;;19.85;64.94;99233.16;5047925;28;20080;-80
2023/07/17 05:28:52;;;;;;;0.30;0.30;;;;;;;19.92;64.33;99231.66;5055538;28;20048;-79
2023/07/17 05:31:21;;;;;;;0.30;0.30;;;;;;;20.09;64.20;99241.25;5070567;28;20460;-81
2023/07/17 05:33:50;;;;;;;0.30;0.30;;;;;;;20.26;63.66;99238.72;5078569;28;20047;-80
2023/07/17 05:36:17;;;;;;;0.30;0.30;;;;;;;20.21;62.25;99214.16;5038003;28;20054;-79
2023/07/17 05:38:44;;;;;;;0.30;0.30;;;;;;;20.53;61.92;99237.94;5054479;28;20419;-80
2023/07/17 05:41:12;;;;;;;0.30;0.30;;;;;;;20.53;61.45;99228.88;5051885;28;20046;-80
2023/07/17 05:43:41;;;;;;;0.30;0.30;;;;;;;20.63;60.96;99236.94;5051361;28;20121;-80
2023/07/17 05:46:11;;;;;;;0.30;0.30;;;;;;;20.66;61.02;99235.50;5069796;28;20418;-80
2023/07/17 05:48:38;;;;;;;0.30;0.30;;;;;;;20.78;61.07;99236.59;5069373;28;20048;-80
2023/07/17 05:51:08;;;;;;;0.30;0.30;;;;;;;20.97;60.29;99231.00;5069609;28;20045;-81
2023/07/17 05:53:36;;;;;;;0.30;0.30;;;;;;;21.03;59.20;99239.13;5068378;28;20058;-80
2023/07/17 05:56:03;;;;;;;0.30;0.30;;;;;;;21.04;58.68;99229.78;5052252;28;20070;-79
2023/07/17 05:58:33;;;;;;;0.30;0.30;;;;;;;21.19;57.72;99234.91;5054556;28;20048;-80
2023/07/17 06:01:00;;;;;;;0.30;0.30;;;;;;;21.25;56.92;99232.88;5073199;28;20113;-80
2023/07/17 06:03:29;;;;;;;0.30;0.30;;;;;;;21.31;56.80;99234.38;5075449;28;20052;-79
2023/07/17 06:05:57;;;;;;;0.30;0.30;;;;;;;21.49;57.31;99222.44;5093512;28;20070;-80
2023/07/17 06:08:25;;;;;;;0.30;0.30;;;;;;;21.61;55.39;99222.69;5058744;28;20056;-81
2023/07/17 06:10:52;;;;;;;0.30;0.30;;;;;;;21.50;54.70;99221.34;5093316;28;20048;-79
2023/07/17 06:13:21;;;;;;;0.30;0.30;;;;;;;21.52;53.87;99215.50;5093583;28;20051;-80
2023/07/17 06:15:48;;;;;;;0.30;0.30;;;;;;;21.64;53.42;99227.56;5093204;28;20052;-80
2023/07/17 06:18:15;;;;;;;0.30;0.30;;;;;;;21.75;54.04;99219.06;5075321;28;20109;-80
2023/07/17 06:20:42;;;;;;;0.30;0.30;;;;;;;21.87;53.24;99222.03;5093217;28;20644;-80
2023/07/17 06:23:09;;;;;;;0.30;0.30;;;;;;;21.93;52.47;99223.56;5093453;28;20060;-81
2023/07/17 06:25:38;;;;;;;0.30;0.30;;;;;;;21.96;52.38;99225.66;5075160;28;20135;-80
2023/07/17 06:28:07;;;;;;;0.30;0.30;;;;;;;22.05;52.74;99218.28;5087470;28;20450;-80
2023/07/17 06:30:34;;;;;;;0.22;0.22;;;;;;;22.24;53.38;99223.56;5072464;28;20040;-80
2023/07/17 06:33:01;;;;;;;0.30;0.30;;;;;;;22.35;52.17;99217.78;5088075;28;20050;-79
2023/07/17 06:35:28;;;;;;;0.30;0.30;;;;;;;22.42;52.06;99216.22;5092997;28;20053;-79
2023/07/17 06:37:56;;;;;;;0.28;0.28;;;;;;;22.38;49.81;99220.72;5093086;28;20503;-79
2023/07/17 06:40:23;;;;;;;0.30;0.30;;;;;;;22.27;50.03;99216.63;5074767;28;20054;-80
2023/07/17 06:42:50;;;;;;;0.30;0.30;;;;;;;22.25;49.34;99207.88;5092518;28;20059;-80
2023/07/17 06:45:17;;;;;;;0.20;0.20;;;;;;;22.28;49.35;99199.00;5093249;28;20472;-80
2023/07/17 06:47:44;;;;;;;0.30;0.30;;;;;;;22.44;49.03;99207.66;5093862;28;20075;-80
2023/07/17 06:50:11;;;;;;;0.20;0.20;;;;;;;22.55;49.27;99219.16;5094005;28;20048;-80
2023/07/17 06:52:38;;;;;;;0.30;0.30;;;;;;;22.53;48.21;99202.97;5075457;28;20048;-81
2023/07/17 06:55:07;;;;;;;0.30;0.30;;;;;;;22.45;48.14;99204.56;5075740;28;20048;-80
2023/07/17 06:57:34;;;;;;;0.30;0.30;;;;;;;22.45;48.17;99203.75;5075225;28;20113;-80
2023/07/17 07:00:05;;;;;;;0.30;0.30;;;;;;;22.40;48.20;99199.22;5092668;28;20067;-80
2023/07/17 07:02:32;;;;;;;0.30;0.30;;;;;;;22.57;48.08;99211.41;5093014;28;20040;-81
2023/07/17 07:05:00;;;;;;;0.30;0.30;;;;;;;22.63;47.85;99208.19;5093094;28;20138;-81
2023/07/17 07:07:29;;;;;;;0.22;0.22;;;;;;;22.71;47.09;99206.56;5092894;28;20044;-80
2023/07/17 07:09:57;;;;;;;0.30;0.30;;;;;;;22.66;47.15;99198.47;5093240;28;20047;-81
2023/07/17 07:12:24;;;;;;;0.30;0.30;;;;;;;22.62;47.64;99208.50;5092537;28;20071;-81
2023/07/17 07:14:51;;;;;;;0.20;0.20;;;;;;;22.63;47.77;99210.13;5092059;28;20074;-81
2023/07/17 07:17:19;;;;;;;0.30;0.30;;;;;;;22.50;46.93;99203.63;5092414;28;20044;-81
2023/07/17 07:19:46;;;;;;;0.30;0.30;;;;;;;22.43;46.51;99203.25;5041293;28;20044;-81
2023/07/17 07:22:13;;;;;;;0.30;0.30;;;;;;;22.58;46.70;99210.28;5092316;28;20063;-80
2023/07/17 07:24:42;;;;;;;0.30;0.30;;;;;;;22.62;46.61;99194.75;5073831;28;20055;-81
2023/07/17 07:27:09;;;;;;;0.30;0.30;;;;;;;22.89;46.90;99207.44;5091957;28;20059;-81
2023/07/17 07:29:36;;;;;;;0.20;0.20;;;;;;;22.84;47.24;99205.66;5073927;28;20051;-81
2023/07/17 07:32:04;;;;;;;0.30;0.30;;;;;;;22.79;47.13;99214.06;5074160;28;20051;-80
2023/07/17 07:34:34;;;;;;;0.30;0.30;;;;;;;22.72;47.10;99194.47;5091986;28;20227;-81
2023/07/17 07:37:04;;;;;;;0.20;0.20;;;;;;;22.82;46.65;99209.84;5092163;28;20612;-80
2023/07/17 07:39:31;;;;;;;0.28;0.28;;;;;;;22.86;47.26;99217.13;5092029;28;20094;-81
2023/07/17 07:41:58;;;;;;;0.30;0.30;;;;;;;23.11;46.78;99204.56;5074492;28;20449;-81
2023/07/17 07:44:25;;;;;;;0.30;0.30;;;;;;;23.24;46.26;99201.97;5084366;28;20065;-79
2023/07/17 07:46:52;;;;;;;0.30;0.30;;;;;;;23.50;46.78;99193.72;5077140;28;20036;-80
2023/07/17 07:49:20;;;;;;;0.30;0.30;;;;;;;23.85;46.62;99193.66;5059797;28;20499;-82
2023/07/17 07:51:47;;;;;;;0.30;0.30;;;;;;;24.07;46.00;99168.63;5071291;28;20052;-81
2023/07/17 07:54:17;;;;;;;0.30;0.30;;;;;;;24.46;45.02;99191.53;5077739;28;20059;-80
2023/07/17 07:56:51;;;;;;;0.30;0.30;;;;;;;24.61;44.76;99171.66;5082767;28;20603;-83
2023/07/17 07:59:18;;;;;;;0.30;0.30;;;;;;;24.76;42.20;99186.00;5068306;28;20059;-83
2023/07/17 08:01:45;;;;;;;0.35;0.35;;;;;;;24.65;40.82;99169.84;5085131;28;20040;-81
2023/07/17 08:04:12;;;;;;;0.30;0.30;;;;;;;24.60;41.82;99171.97;5082924;28;20147;-83
2023/07/17 08:06:39;;;;;;;0.30;0.30;;;;;;;24.32;42.69;99168.84;5074058;28;20080;-82
2023/07/17 08:09:06;;;;;;;0.32;0.32;;;;;;;24.29;43.44;99177.81;5069794;28;20078;-81
2023/07/17 08:11:34;;;;;;;0.40;0.40;;;;;;;24.45;43.60;99176.13;5091055;28;20044;-82
2023/07/17 08:14:01;;;;;;;0.30;0.30;;;;;;;24.86;42.68;99171.81;5066969;28;20040;-79
2023/07/17 08:16:28;;;;;;;0.30;0.30;;;;;;;25.00;41.67;99166.03;5053813;28;20051;-81
2023/07/17 08:18:55;;;;;;;0.30;0.30;;;;;;;25.21;40.69;99166.84;5052942;28;20782;-81
2023/07/17 08:21:22;;;;;;;0.30;0.30;;;;;;;25.40;40.20;99162.81;5065112;28;20040;-81
2023/07/17 08:23:50;;;;;;;0.30;0.30;;;;;;;25.76;39.78;99156.56;5081668;28;20048;-82
2023/07/17 08:26:16;;;;;;;0.30;0.30;;;;;;;26.04;39.55;99153.19;5082895;28;20572;-83
2023/07/17 08:28:44;;;;;;;0.35;0.35;;;;;;;26.18;39.13;99148.13;5070406;28;20503;-83
2023/07/17 08:31:11;;;;;;;0.32;0.32;;;;;;;26.42;38.70;99152.06;5085878;28;20093;-83
2023/07/17 08:33:38;;;;;;;0.30;0.30;;;;;;;26.76;38.79;99159.91;5078339;28;20504;-81
2023/07/17 08:36:05;;;;;;;0.30;0.30;;;;;;;27.02;36.70;99150.38;5072159;28;20051;-81
2023/07/17 08:38:32;;;;;;;0.30;0.30;;;;;;;26.87;35.95;99159.41;5071747;28;20047;-82
2023/07/17 08:41:00;;;;;;;0.30;0.30;;;;;;;26.51;36.22;99138.88;5090044;28;20594;-81
2023/07/17 08:43:27;;;;;;;0.30;0.30;;;;;;;26.42;36.71;99136.25;5088195;28;20052;-81
2023/07/17 08:45:54;;;;;;;0.30;0.30;;;;;;;26.66;36.47;99149.28;5088986;28;20135;-80
2023/07/17 08:48:27;;;;;;;0.30;0.30;;;;;;;26.93;36.49;99144.16;5082610;28;20044;-82
2023/07/17 08:50:59;;;;;;;0.30;0.30;;;;;;;26.90;35.52;99139.31;5084657;28;20070;-81
2023/07/17 08:53:26;;;;;;;0.30;0.30;;;;;;;27.51;36.05;99152.16;5072119;28;20060;-81
2023/07/17 08:55:55;;;;;;;0.30;0.30;;;;;;;27.75;32.14;99145.66;5058384;28;20522;-80
2023/07/17 08:58:26;;;;;;;0.22;0.22;;;;;;;27.46;31.57;99147.69;5069356;28;20101;-80
2023/07/17 09:00:53;;;;;;;0.30;0.30;;;;;;;27.27;32.89;99142.00;5079107;28;20052;-82
2023/07/17 09:03:20;;;;;;;0.30;0.30;;;;;;;27.48;33.76;99152.88;5089380;28;20148;-81
2023/07/17 09:05:49;;;;;;;0.30;0.30;;;;;;;27.71;33.73;99139.25;5089166;28;20040;-81
2023/07/17 09:08:19;;;;;;;0.30;0.30;;;;;;;27.82;33.96;99135.59;5089604;28;20071;-81
2023/07/17 09:11:04;;;;;;;0.30;0.30;;;;;;;28.78;34.10;99147.44;5090343;28;20109;-81
2023/07/17 09:13:38;;;;;;;0.30;0.30;;;;;;;29.51;32.96;99133.88;5090493;28;20044;-81
2023/07/17 09:16:19;;;;;;;0.30;0.30;;;;;;;29.98;32.42;99135.53;5072870;28;20071;-81
2023/07/17 09:18:51;;;;;;;0.30;0.30;;;;;;;30.36;31.19;99122.63;5070477;28;20045;-81
2023/07/17 09:21:20;;;;;;;0.40;0.40;;;;;;;30.63;31.23;99131.78;5070570;28;20040;-80
2023/07/17 09:23:50;;;;;;;0.30;0.30;;;;;;;31.03;30.65;99133.97;5035599;28;20055;-82
2023/07/17 09:26:20;;;;;;;0.30;0.30;;;;;;;31.15;30.49;99129.34;5070158;28;20503;-81
2023/07/17 09:28:49;;;;;;;0.30;0.30;;;;;;;31.51;29.53;99131.38;5051880;28;20105;-80
2023/07/17 09:31:32;;;;;;;0.30;0.30;;;;;;;31.60;29.22;99127.47;5070109;28;20108;-81
2023/07/17 09:34:04;;;;;;;0.10;0.10;;;;;;;29.69;31.09;99129.47;5070589;28;20049;-80
2023/07/17 09:36:31;;;;;;;0.40;0.40;;;;;;;29.19;31.92;99133.25;5040215;28;20056;-81
2023/07/17 09:38:58;;;;;;;0.40;0.40;;;;;;;29.71;31.56;99138.25;5074401;28;20049;-81
2023/07/17 09:41:28;;;;;;;0.40;0.40;;;;;;;29.66;31.54;99141.34;5039948;28;20148;-80
2023/07/17 09:44:03;;;;;;;0.30;0.30;;;;;;;30.15;31.09;99129.44;5039586;28;20075;-81
2023/07/17 09:46:35;;;;;;;0.40;0.40;;;;;;;30.30;31.47;99124.16;5074231;28;20063;-81
2023/07/17 09:49:04;;;;;;;0.40;0.40;;;;;;;30.84;30.10;99125.75;5074150;28;20114;-80
2023/07/17 09:51:31;;;;;;;0.30;0.30;;;;;;;31.22;29.29;99134.97;5074231;28;20045;-80
2023/07/17 09:54:02;;;;;;;0.30;0.30;;;;;;;30.80;29.62;99127.66;5073966;28;20056;-80
2023/07/17 09:56:33;;;;;;;0.30;0.30;;;;;;;31.08;29.19;99116.91;5073639;28;20059;-80
2023/07/17 09:59:04;;;;;;;0.30;0.30;;;;;;;31.26;28.37;99135.81;5080539;28;20105;-80
2023/07/17 10:01:32;;;;;;;0.40;0.40;;;;;;;30.52;28.33;99103.81;5094157;28;20048;-81
2023/07/17 10:04:02;;;;;;;0.40;0.40;;;;;;;30.72;28.45;99120.41;5042729;28;20044;-81
2023/07/17 10:06:30;;;;;;;0.32;0.32;;;;;;;31.03;28.38;99124.81;5093899;28;20076;-81
2023/07/17 10:08:59;;;;;;;0.40;0.40;;;;;;;31.68;27.56;99115.22;5075971;28;20067;-80
2023/07/17 10:11:26;;;;;;;0.40;0.40;;;;;;;32.51;26.72;99113.91;5076137;28;20643;-81
2023/07/17 10:13:54;;;;;;;0.40;0.40;;;;;;;33.01;26.96;99114.97;5081002;28;20519;-80
2023/07/17 10:16:21;;;;;;;0.40;0.40;;;;;;;33.78;26.35;99100.84;5055609;28;20255;-80
2023/07/17 10:18:53;;;;;;;0.30;0.30;;;;;;;34.11;25.38;99104.47;5055289;28;20137;-80
2023/07/17 10:21:22;;;;;;;0.30;0.30;;;;;;;34.60;25.44;99096.41;5055681;28;20140;-79
2023/07/17 10:23:50;;;;;;;0.30;0.30;;;;;;;34.73;24.33;99097.56;5073647;28;20052;-79
2023/07/17 10:26:21;;;;;;;0.30;0.30;;;;;;;34.07;24.87;99093.25;5055642;28;20072;-80
2023/07/17 10:28:52;;;;;;;0.30;0.30;;;;;;;34.45;24.40;99101.22;5055123;28;20044;-80
2023/07/17 10:31:24;;;;;;;0.35;0.35;;;;;;;34.56;24.66;99098.38;5056798;28;20511;-80
2023/07/17 10:33:52;;;;;;;0.38;0.38;;;;;;;35.14;23.82;99100.63;5058257;28;20433;-79
2023/07/17 10:36:42;;;;;;;0.32;0.32;;;;;;;34.37;24.44;99092.03;5093443;28;20890;-80
2023/07/17 10:39:20;;;;;;;0.38;0.38;;;;;;;34.95;24.23;99089.88;5075056;28;20052;-79
2023/07/17 10:41:51;;;;;;;0.30;0.30;;;;;;;35.01;23.74;99079.84;5058223;28;20514;-80
2023/07/17 10:44:24;;;;;;;0.35;0.35;;;;;;;34.29;24.34;99084.84;5092967;28;20056;-79
2023/07/17 10:46:51;;;;;;;0.30;0.30;;;;;;;34.44;25.62;99069.59;5073919;28;20147;-80
2023/07/17 10:49:19;;;;;;;0.40;0.40;;;;;;;35.57;23.67;99077.91;5093485;28;20134;-79
2023/07/17 10:51:53;;;;;;;0.30;0.30;;;;;;;35.62;23.65;99073.13;5091606;28;20056;-79
2023/07/17 10:54:20;;;;;;;0.30;0.30;;;;;;;35.21;23.41;99063.34;5092898;28;20056;-79
2023/07/17 10:56:48;;;;;;;0.10;0.10;;;;;;;33.81;24.12;99072.06;5074728;28;20044;-79
2023/07/17 10:59:17;;;;;;;0.40;0.40;;;;;;;32.11;25.87;99068.16;5086637;28;20048;-79
2023/07/17 11:01:46;;;;;;;0.40;0.40;;;;;;;33.40;25.04;99063.19;5078502;28;20062;-79
2023/07/17 11:04:13;;;;;;;0.40;0.40;;;;;;;34.48;24.17;99059.19;5074936;28;20053;-79
2023/07/17 11:06:41;;;;;;;0.40;0.40;;;;;;;34.66;24.19;99061.94;5051177;28;20039;-79
2023/07/17 11:09:10;;;;;;;0.10;0.10;;;;;;;34.94;23.36;99058.25;5088826;28;20049;-79
2023/07/17 11:11:37;;;;;;;0.20;0.20;;;;;;;33.15;25.52;99063.16;5085234;28;20073;-79
2023/07/17 11:14:04;;;;;;;0.10;0.10;;;;;;;32.15;26.53;99064.19;5061287;28;20053;-80
2023/07/17 11:16:35;;;;;;;0.40;0.40;;;;;;;31.66;27.53;99053.41;5073295;28;20044;-80
2023/07/17 11:19:05;;;;;;;0.40;0.40;;;;;;;32.44;26.98;99052.41;5065542;28;20043;-80
2023/07/17 11:21:32;;;;;;;0.40;0.40;;;;;;;34.62;24.47;99046.38;5091228;28;20104;-79
2023/07/17 11:24:06;;;;;;;0.40;0.40;;;;;;;35.47;22.95;99052.75;5090407;28;20047;-80
2023/07/17 11:26:34;;;;;;;0.40;0.40;;;;;;;36.01;23.89;99051.13;5088916;28;20052;-79
2023/07/17 11:29:04;;;;;;;0.40;0.40;;;;;;;36.84;22.06;99047.44;5074198;28;20048;-80
2023/07/17 11:31:33;;;;;;;0.30;0.30;;;;;;;37.76;22.12;99041.75;5074568;28;20043;-78
2023/07/17 11:34:09;;;;;;;0.30;0.30;;;;;;;38.28;21.02;99054.53;5091829;28;20051;-79
2023/07/17 11:36:42;;;;;;;0.30;0.30;;;;;;;38.47;20.19;99050.19;5057760;28;20055;-79
2023/07/17 11:39:14;;;;;;;0.30;0.30;;;;;;;37.63;19.33;99044.38;5092168;28;20624;-79